KTHA

Tullahoma Regional Arpt / Wm Northern Field Airport

Tullahoma, Tennessee, USA
METAR KTHA 190455Z AUTO 00000KT 10SM CLR 20/20 A3000 RMK A01
Observed Flight Rules
Sep-19 @ 04:55 UTC (30 minutes ago) Visual Flight Rules
Visibility Clouds
10 miles
  • Clear skies
Temperatures Readings
Current 20°C / 68°F
Dewpoint 20°C / 68°F
Humidity 100%
Altimeter 30" Hg
Pressure 1016 hPa
Elevation 331
METAR KTHA 190455Z AUTO 00000KT 10SM CLR 20/20 A3000 RMK A01
Observed Flight Rules
Sep-19 @ 04:55 UTC
(30 minutes ago)
VFR
Clouds
  • Clear skies
Temperature Dewpoint
20°C / 68°F 20°C / 68°F
Humidity Altimeter Pressure
100% 30" Hg 1016 hPa